Airfield :
LOGIN :

Register | Disclaimer

   EN    FR    IT 

 










Legend :    VFR   Marginal VFR   IFR   Intensive IFR   Very Intensive IFR
Visi :
Ceiling :
>= 8 km
>= 3000ft
5 to 8 km
1000 to 3000 ft
1500m to 5 km
500 to 1000 ft
800 to 1500m
200 to 500 ft
< 800m
< 200 ft
Symbols :   Thunderstorms  Fog  Heavy snow  Heavy precipitations  Wind > 20 kt
SIGMETs :     Misc.  Thunderstorms  Icing  Turbulence  Mountain Waves  Volcanic Ashes






- Airport Elevation : 333 ft


LIPL - Ghedi Brescia (Mil)

CURRENT METAR :
  • 041055Z 06003KT 9999 SCT035 30/21 Q1016

EXPIRED METARs :
  • 040955Z 05005KT 9999 -RA SCT040 30/21 Q1016
  • 040855Z 09005KT 9999 SCT040 29/21 Q1016 RMK BKN SCT100 VIS MIN 9999 WIND THR31 07006KT WIND THR13 06006KT BLU

TAF TAF LIPL
Valid from the 04 at 12:00 until the 04 at 21:00 UTC


041100Z 0412/0421 08008KT 9999 FEW040
TEMPO 0418/0421 5000 SHRA FEW015 BKN030



MET'MAP, your aeronautical weather chart ! - Copyright ORBIFLY December 2007 - Disclaimer

ORBIFLY MET'MAP TEAM :

Programming & Development : Alexandra Zaïnal
Original concept : Baudouin d'Aumeries
Technical & hardware support : Manuel Goepfert
Assistance : Marc-Olivier Méhu




SOURCES & CREDITS :

   NOAA